Time;durP1;ratioP1;P1;durP2;ratioP2;P2;SDS_P1;SDS_P2;PMS_P1;PMS_P2;Temp;Humidity;BMP_temperature;BMP_pressure;BME280_temperature;BME280_humidity;BME280_pressure;Samples;Min_cycle;Max_cycle;Signal;HPM_P1;HPM_P2
2022/07/27 00:00:12;;;;;;;4.93;1.70;;;;;;;12.89;94.51;101853.78;5248136;28;20028;-66
2022/07/27 00:02:43;;;;;;;4.60;1.80;;;;;;;12.80;94.34;101845.53;5250180;28;20469;-66
2022/07/27 00:05:14;;;;;;;6.93;2.00;;;;;;;12.78;94.81;101842.13;5251160;28;20020;-66
2022/07/27 00:07:45;;;;;;;5.78;2.00;;;;;;;12.80;95.97;101840.19;5248915;28;20067;-66
2022/07/27 00:10:17;;;;;;;4.88;1.92;;;;;;;12.72;96.60;101833.53;5253002;28;20034;-66
2022/07/27 00:12:48;;;;;;;4.53;1.70;;;;;;;12.73;97.36;101834.38;5252936;28;20106;-67
2022/07/27 00:15:19;;;;;;;4.30;1.70;;;;;;;12.60;96.93;101834.41;5251579;28;20462;-67
2022/07/27 00:17:51;;;;;;;4.15;1.95;;;;;;;12.62;96.85;101831.59;5254899;28;20029;-66
2022/07/27 00:20:22;;;;;;;6.20;2.17;;;;;;;12.50;97.19;101836.84;5252251;28;20195;-67
2022/07/27 00:22:54;;;;;;;4.93;2.30;;;;;;;12.48;96.92;101840.56;5252577;28;20059;-66
2022/07/27 00:25:26;;;;;;;7.30;2.28;;;;;;;12.42;97.44;101843.69;5253899;28;20111;-67
2022/07/27 00:27:57;;;;;;;4.93;2.00;;;;;;;12.48;99.18;101837.91;5253444;28;20044;-67
2022/07/27 00:30:29;;;;;;;3.65;2.03;;;;;;;12.45;98.80;101832.78;5253111;28;20518;-67
2022/07/27 00:33:00;;;;;;;7.68;2.88;;;;;;;12.54;100.00;101841.03;5254736;28;20021;-67
2022/07/27 00:35:32;;;;;;;4.80;2.05;;;;;;;12.33;99.00;101838.00;5251283;28;20116;-66
2022/07/27 00:38:03;;;;;;;4.63;2.33;;;;;;;12.38;100.00;101840.34;5256736;28;20124;-67
2022/07/27 00:40:34;;;;;;;4.40;2.10;;;;;;;12.23;99.36;101836.03;5248215;28;20037;-67
2022/07/27 00:43:06;;;;;;;11.60;3.03;;;;;;;12.21;99.44;101837.97;5254604;28;20079;-67
2022/07/27 00:45:37;;;;;;;5.35;2.30;;;;;;;12.19;99.42;101835.38;5249159;28;20040;-66
2022/07/27 00:48:09;;;;;;;6.57;2.42;;;;;;;12.10;100.00;101839.56;5253113;28;20028;-66
2022/07/27 00:50:42;;;;;;;5.28;2.53;;;;;;;12.14;100.00;101838.38;5250526;28;20053;-67
2022/07/27 00:53:13;;;;;;;5.72;2.53;;;;;;;12.05;100.00;101848.84;5251217;28;20033;-67
2022/07/27 00:55:45;;;;;;;6.93;2.90;;;;;;;12.03;100.00;101845.44;5283003;27;20032;-66
2022/07/27 00:58:16;;;;;;;5.80;2.47;;;;;;;12.05;100.00;101843.50;5259178;28;20135;-66
2022/07/27 01:00:47;;;;;;;7.25;2.78;;;;;;;11.95;100.00;101848.59;5261018;28;20472;-67
2022/07/27 01:03:19;;;;;;;4.90;2.78;;;;;;;11.86;100.00;101833.97;5263981;28;20722;-67
2022/07/27 01:05:50;;;;;;;7.40;2.60;;;;;;;11.79;100.00;101838.00;5257248;28;20537;-67
2022/07/27 01:08:22;;;;;;;5.32;2.63;;;;;;;11.73;100.00;101835.75;5275793;28;20028;-66
2022/07/27 01:10:55;;;;;;;8.30;2.53;;;;;;;11.74;100.00;101841.00;5252044;28;20447;-66
2022/07/27 01:13:27;;;;;;;6.10;2.20;;;;;;;11.64;100.00;101841.69;5255951;28;20107;-66
2022/07/27 01:15:58;;;;;;;5.25;2.15;;;;;;;11.62;100.00;101841.81;5255686;28;20054;-67
2022/07/27 01:18:35;;;;;;;7.45;2.92;;;;;;;11.70;100.00;101834.16;5256433;28;20036;-67
2022/07/27 01:21:08;;;;;;;7.57;3.00;;;;;;;11.64;100.00;101833.66;5252379;28;20024;-66
2022/07/27 01:23:39;;;;;;;6.43;2.88;;;;;;;11.61;100.00;101831.22;5255960;28;20036;-67
2022/07/27 01:26:10;;;;;;;9.05;2.90;;;;;;;11.51;100.00;101834.47;5259162;28;20047;-67
2022/07/27 01:28:42;;;;;;;4.95;2.63;;;;;;;11.48;100.00;101842.69;5266769;28;20060;-67
2022/07/27 01:31:13;;;;;;;5.50;2.80;;;;;;;11.39;100.00;101835.28;5257301;28;20025;-67
2022/07/27 01:33:45;;;;;;;6.13;3.05;;;;;;;11.37;100.00;101837.16;5257859;28;20539;-67
2022/07/27 01:36:16;;;;;;;8.52;2.70;;;;;;;11.41;100.00;101841.38;5258182;28;20043;-67
2022/07/27 01:38:47;;;;;;;4.85;2.90;;;;;;;11.42;100.00;101835.06;5264956;28;20047;-67
2022/07/27 01:41:19;;;;;;;8.57;2.90;;;;;;;11.43;100.00;101841.25;5258277;28;20064;-67
2022/07/27 01:43:50;;;;;;;6.05;3.13;;;;;;;11.44;100.00;101837.66;5261706;28;20024;-67
2022/07/27 01:46:21;;;;;;;4.78;2.70;;;;;;;11.42;100.00;101837.75;5255380;28;20051;-67
2022/07/27 01:48:53;;;;;;;7.50;3.00;;;;;;;11.45;100.00;101829.53;5257371;28;20029;-67
2022/07/27 01:51:24;;;;;;;5.75;3.00;;;;;;;11.44;100.00;101832.31;5253399;28;20394;-67
2022/07/27 01:53:55;;;;;;;5.60;2.40;;;;;;;11.37;100.00;101829.16;5247799;28;21764;-67
2022/07/27 01:56:27;;;;;;;7.93;3.05;;;;;;;11.48;100.00;101829.31;5248904;28;20094;-67
2022/07/27 01:58:58;;;;;;;7.40;2.67;;;;;;;11.48;100.00;101832.00;5250901;28;20032;-67
2022/07/27 02:01:30;;;;;;;7.22;2.95;;;;;;;11.32;100.00;101832.13;5251871;28;20044;-66
2022/07/27 02:04:01;;;;;;;7.75;3.20;;;;;;;11.28;100.00;101827.09;5258323;28;20115;-66
2022/07/27 02:06:32;;;;;;;7.60;2.63;;;;;;;11.28;100.00;101827.09;5251781;28;20123;-66
2022/07/27 02:09:04;;;;;;;6.32;2.28;;;;;;;11.15;100.00;101824.34;5249982;28;20029;-66
2022/07/27 02:14:25;;;;;;;7.10;2.75;;;;;;;11.08;100.00;101825.66;5255700;28;20044;-66
2022/07/27 02:16:56;;;;;;;7.95;2.90;;;;;;;11.13;100.00;101829.75;5251592;28;20036;-66
2022/07/27 02:19:28;;;;;;;7.10;3.20;;;;;;;11.01;100.00;101816.31;5256809;28;20124;-66
2022/07/27 02:21:59;;;;;;;7.50;2.97;;;;;;;10.90;100.00;101814.34;5259059;28;20113;-66
2022/07/27 02:24:30;;;;;;;6.80;2.85;;;;;;;10.84;100.00;101818.25;5257970;28;20020;-66
2022/07/27 02:27:02;;;;;;;7.28;2.60;;;;;;;10.82;100.00;101814.81;5253211;28;20037;-66
2022/07/27 02:29:34;;;;;;;5.63;2.70;;;;;;;10.82;100.00;101813.97;5254618;28;20118;-66
2022/07/27 02:32:05;;;;;;;5.63;2.42;;;;;;;10.78;100.00;101811.47;5258354;28;20208;-66
2022/07/27 02:34:37;;;;;;;7.07;3.20;;;;;;;10.87;100.00;101814.50;5261970;28;20078;-66
2022/07/27 02:37:08;;;;;;;8.13;3.38;;;;;;;10.77;100.00;101807.06;5257537;28;20502;-66
2022/07/27 02:39:39;;;;;;;7.53;3.38;;;;;;;10.78;100.00;101816.81;5258072;28;20028;-66
2022/07/27 02:42:11;;;;;;;5.47;2.97;;;;;;;10.67;100.00;101813.94;5262120;28;20430;-66
2022/07/27 02:44:42;;;;;;;6.35;3.03;;;;;;;10.67;100.00;101805.94;5256232;28;20048;-67
2022/07/27 02:47:13;;;;;;;6.75;3.30;;;;;;;10.81;100.00;101802.41;5249190;28;20028;-66
2022/07/27 02:49:44;;;;;;;6.25;3.08;;;;;;;10.65;100.00;101815.00;5251770;28;20059;-66
2022/07/27 02:52:16;;;;;;;7.13;3.47;;;;;;;10.79;100.00;101809.66;5249241;28;20479;-66
2022/07/27 02:54:47;;;;;;;6.47;3.30;;;;;;;10.65;100.00;101807.84;5254669;28;20095;-66
2022/07/27 02:57:18;;;;;;;7.30;3.67;;;;;;;10.57;100.00;101812.78;5248186;28;20399;-66
2022/07/27 02:59:50;;;;;;;6.15;3.40;;;;;;;10.52;100.00;101807.72;5246667;28;20217;-66
2022/07/27 03:02:21;;;;;;;7.13;3.55;;;;;;;10.54;100.00;101810.31;5252740;28;20111;-66
2022/07/27 03:04:52;;;;;;;8.85;3.47;;;;;;;10.48;100.00;101810.69;5249477;28;20116;-66
2022/07/27 03:07:23;;;;;;;7.28;3.00;;;;;;;10.55;100.00;101814.72;5249901;28;20037;-69
2022/07/27 03:09:55;;;;;;;7.10;3.40;;;;;;;10.42;100.00;101811.91;5253634;28;20075;-66
2022/07/27 03:12:26;;;;;;;6.88;3.20;;;;;;;10.44;100.00;101819.81;5247849;28;20391;-66
2022/07/27 03:14:57;;;;;;;7.28;3.47;;;;;;;10.37;100.00;101820.19;5249556;28;20043;-66
2022/07/27 03:17:29;;;;;;;7.90;3.53;;;;;;;10.43;100.00;101820.75;5246792;28;20024;-66
2022/07/27 03:20:00;;;;;;;5.38;3.60;;;;;;;10.36;100.00;101823.81;5250830;28;20032;-66
2022/07/27 03:22:32;;;;;;;5.85;3.65;;;;;;;10.34;100.00;101820.38;5261944;28;20029;-66
2022/07/27 03:25:04;;;;;;;6.45;3.50;;;;;;;10.25;100.00;101820.88;5253634;28;20363;-66
2022/07/27 03:27:35;;;;;;;5.60;3.42;;;;;;;10.22;100.00;101826.41;5257733;28;20082;-66
2022/07/27 03:30:07;;;;;;;5.45;3.47;;;;;;;10.29;100.00;101814.41;5254597;28;20054;-66
2022/07/27 03:32:39;;;;;;;7.35;3.50;;;;;;;10.21;100.00;101822.03;5258408;28;20510;-66
2022/07/27 03:35:11;;;;;;;9.32;3.80;;;;;;;10.35;100.00;101821.22;5258675;28;20024;-66
2022/07/27 03:37:43;;;;;;;7.00;3.97;;;;;;;10.45;100.00;101825.06;5257629;28;20024;-66
2022/07/27 03:40:14;;;;;;;8.45;3.55;;;;;;;10.29;100.00;101816.22;5257010;28;20864;-66
2022/07/27 03:42:45;;;;;;;7.18;4.00;;;;;;;10.26;100.00;101819.06;5250607;28;20122;-66
2022/07/27 03:45:17;;;;;;;8.35;3.22;;;;;;;10.26;100.00;101814.63;5247017;28;20032;-66
2022/07/27 03:47:48;;;;;;;5.95;3.78;;;;;;;10.20;100.00;101823.84;5245293;28;20119;-66
2022/07/27 03:50:21;;;;;;;7.80;3.85;;;;;;;10.17;100.00;101820.50;5254731;28;22024;-66
2022/07/27 03:52:52;;;;;;;6.70;3.80;;;;;;;10.35;100.00;101827.41;5249285;28;20039;-66
2022/07/27 03:55:24;;;;;;;8.23;4.05;;;;;;;10.40;100.00;101816.47;5247574;28;20467;-66
2022/07/27 03:57:55;;;;;;;8.55;3.90;;;;;;;10.31;100.00;101820.53;5246916;28;20056;-66
2022/07/27 04:00:27;;;;;;;8.88;4.28;;;;;;;10.51;100.00;101823.84;5247539;28;20098;-66
2022/07/27 04:02:58;;;;;;;9.23;4.10;;;;;;;10.52;100.00;101823.72;5250639;28;20094;-66
2022/07/27 04:05:29;;;;;;;6.72;3.60;;;;;;;10.51;100.00;101824.69;5250527;28;20770;-66
2022/07/27 04:08:01;;;;;;;7.32;3.63;;;;;;;10.66;100.00;101830.03;5246368;28;20390;-66
2022/07/27 04:10:32;;;;;;;7.40;3.72;;;;;;;10.57;100.00;101829.66;5251889;28;20066;-66
2022/07/27 04:13:03;;;;;;;10.75;3.85;;;;;;;10.65;100.00;101825.69;5250007;28;20089;-66
2022/07/27 04:15:35;;;;;;;8.35;4.22;;;;;;;10.67;100.00;101821.94;5247252;28;20028;-66
2022/07/27 04:18:06;;;;;;;9.20;3.60;;;;;;;10.73;100.00;101826.91;5253936;28;20418;-66
2022/07/27 04:20:37;;;;;;;9.48;3.90;;;;;;;10.81;100.00;101823.75;5258125;28;20040;-66
2022/07/27 04:23:09;;;;;;;8.88;3.67;;;;;;;10.87;100.00;101812.69;5247971;28;20063;-66
2022/07/27 04:25:40;;;;;;;10.98;3.97;;;;;;;11.01;100.00;101822.53;5256161;28;20578;-66
2022/07/27 04:28:11;;;;;;;11.60;3.95;;;;;;;10.94;100.00;101823.88;5262591;28;20032;-66
2022/07/27 04:30:43;;;;;;;9.65;4.07;;;;;;;10.96;100.00;101824.63;5258005;28;20765;-66
2022/07/27 04:33:14;;;;;;;7.80;4.25;;;;;;;10.97;100.00;101826.34;5260157;28;20119;-66
2022/07/27 04:35:45;;;;;;;8.00;3.92;;;;;;;11.01;100.00;101827.88;5253320;28;20086;-66
2022/07/27 04:38:17;;;;;;;9.02;3.67;;;;;;;11.06;100.00;101831.09;5263075;28;20035;-66
2022/07/27 04:40:48;;;;;;;9.52;4.10;;;;;;;11.11;100.00;101829.00;5256115;28;20025;-66
2022/07/27 04:43:19;;;;;;;9.00;4.20;;;;;;;11.11;100.00;101826.34;5244197;28;20063;-66
2022/07/27 04:45:51;;;;;;;8.52;3.70;;;;;;;11.16;100.00;101836.72;5246221;28;20089;-66
2022/07/27 04:48:22;;;;;;;7.35;3.97;;;;;;;11.18;100.00;101842.84;5253214;28;20105;-66
2022/07/27 04:50:53;;;;;;;11.00;4.22;;;;;;;11.20;100.00;101838.25;5252390;28;20407;-66
2022/07/27 04:53:25;;;;;;;10.13;4.32;;;;;;;11.26;100.00;101839.69;5252593;28;20156;-66
2022/07/27 04:55:56;;;;;;;11.57;4.50;;;;;;;11.24;100.00;101838.91;5256741;28;20770;-65
2022/07/27 04:58:28;;;;;;;10.75;4.45;;;;;;;11.23;100.00;101840.72;5254360;28;20550;-66
2022/07/27 05:00:59;;;;;;;7.95;3.95;;;;;;;11.23;100.00;101842.53;5252892;28;20040;-66
2022/07/27 05:03:30;;;;;;;10.90;4.45;;;;;;;11.22;100.00;101844.38;5254635;28;20115;-67
2022/07/27 05:06:02;;;;;;;11.50;4.60;;;;;;;11.25;100.00;101848.66;5250999;28;20390;-66
2022/07/27 05:08:34;;;;;;;11.07;4.53;;;;;;;11.21;100.00;101857.81;5248866;28;20036;-66
2022/07/27 05:11:05;;;;;;;7.28;4.35;;;;;;;11.20;100.00;101856.97;5250623;28;20031;-66
2022/07/27 05:13:39;;;;;;;9.32;4.78;;;;;;;11.22;100.00;101854.16;5257019;28;20033;-66
2022/07/27 05:16:10;;;;;;;9.95;4.43;;;;;;;11.22;100.00;101856.84;5254476;28;20031;-66
2022/07/27 05:18:42;;;;;;;9.20;4.30;;;;;;;11.24;100.00;101857.59;5253639;28;21298;-66
2022/07/27 05:21:13;;;;;;;8.27;4.70;;;;;;;11.24;100.00;101858.47;5255236;28;20037;-66
2022/07/27 05:23:44;;;;;;;8.77;4.72;;;;;;;11.24;100.00;101863.81;5262316;28;20455;-66
2022/07/27 05:26:16;;;;;;;11.18;5.03;;;;;;;11.28;100.00;101868.00;5262304;28;20029;-67
2022/07/27 05:28:47;;;;;;;10.13;4.85;;;;;;;11.31;100.00;101870.50;5265133;28;20057;-66
2022/07/27 05:31:19;;;;;;;12.82;5.32;;;;;;;11.34;100.00;101880.97;5258033;28;20024;-66
2022/07/27 05:33:50;;;;;;;14.90;6.40;;;;;;;11.36;100.00;101878.22;5263764;28;20181;-66
2022/07/27 05:36:21;;;;;;;14.63;7.53;;;;;;;11.36;100.00;101883.56;5260599;28;20124;-66
2022/07/27 05:38:53;;;;;;;14.35;8.20;;;;;;;11.39;100.00;101878.03;5262514;28;20032;-66
2022/07/27 05:41:25;;;;;;;15.02;7.57;;;;;;;11.43;100.00;101871.53;5261625;28;20076;-66
2022/07/27 05:43:56;;;;;;;12.98;7.25;;;;;;;11.49;100.00;101868.47;5270311;28;20032;-66
2022/07/27 05:46:28;;;;;;;16.35;7.10;;;;;;;11.58;100.00;101867.00;5263564;28;20032;-66
2022/07/27 05:48:59;;;;;;;12.45;6.72;;;;;;;11.58;100.00;101870.56;5274733;28;20032;-66
2022/07/27 05:51:30;;;;;;;10.07;5.90;;;;;;;11.64;100.00;101881.78;5257587;28;20154;-66
2022/07/27 05:54:02;;;;;;;10.88;5.13;;;;;;;11.68;100.00;101884.19;5267485;28;20071;-66
2022/07/27 05:56:34;;;;;;;8.60;4.82;;;;;;;11.76;100.00;101887.22;5261836;28;20108;-66
2022/07/27 05:59:06;;;;;;;8.52;5.13;;;;;;;11.85;100.00;101883.09;5268281;28;20054;-66
2022/07/27 06:01:37;;;;;;;11.20;4.75;;;;;;;11.92;100.00;101884.41;5265562;28;20021;-66
2022/07/27 06:04:09;;;;;;;10.82;5.15;;;;;;;11.96;100.00;101891.28;5268964;28;20028;-66
2022/07/27 06:09:30;;;;;;;7.38;4.22;;;;;;;12.14;100.00;101885.69;5263168;28;20753;-66
2022/07/27 06:12:01;;;;;;;8.45;4.35;;;;;;;12.20;100.00;101885.28;5266714;28;20016;-66
2022/07/27 06:14:32;;;;;;;8.35;4.38;;;;;;;12.33;100.00;101890.66;5262862;28;20404;-66
2022/07/27 06:17:04;;;;;;;11.45;4.40;;;;;;;12.41;100.00;101898.19;5261476;28;20366;-66
2022/07/27 06:19:38;;;;;;;7.78;4.00;;;;;;;12.51;100.00;101889.41;5259686;28;20032;-66
2022/07/27 06:22:09;;;;;;;5.57;4.03;;;;;;;12.54;100.00;101897.25;5263603;28;20044;-66
2022/07/27 06:24:41;;;;;;;7.38;3.85;;;;;;;12.61;100.00;101889.66;5267410;28;20635;-66
2022/07/27 06:27:12;;;;;;;8.40;4.00;;;;;;;12.81;100.00;101885.59;5264476;28;20355;-66
2022/07/27 06:29:43;;;;;;;10.25;3.83;;;;;;;12.81;100.00;101892.75;5264031;28;20474;-66
2022/07/27 06:32:15;;;;;;;7.22;3.03;;;;;;;12.97;100.00;101879.19;5263040;28;20119;-67
2022/07/27 06:34:46;;;;;;;6.65;3.08;;;;;;;13.06;100.00;101890.09;5265689;28;20028;-66
2022/07/27 06:37:17;;;;;;;7.22;2.03;;;;;;;13.14;100.00;101895.78;5257040;28;21528;-66
2022/07/27 06:39:49;;;;;;;6.63;2.65;;;;;;;13.16;100.00;101889.47;5268347;28;20037;-67
2022/07/27 06:42:20;;;;;;;4.80;2.67;;;;;;;13.34;100.00;101882.81;5262958;28;21286;-67
2022/07/27 06:44:52;;;;;;;4.65;2.00;;;;;;;13.55;99.63;101884.91;5255813;28;20039;-67
2022/07/27 06:47:23;;;;;;;4.82;1.70;;;;;;;13.69;98.04;101890.13;5257005;28;20033;-67
2022/07/27 06:49:54;;;;;;;6.28;1.40;;;;;;;13.86;97.15;101892.41;5255147;28;20033;-66
2022/07/27 06:52:26;;;;;;;4.72;1.48;;;;;;;14.05;94.28;101891.91;5262681;28;20115;-67
2022/07/27 06:54:57;;;;;;;4.70;1.38;;;;;;;14.17;93.95;101900.03;5259811;28;20024;-67
2022/07/27 06:57:28;;;;;;;4.68;1.65;;;;;;;14.34;92.01;101893.38;5261929;28;20056;-67
2022/07/27 07:00:00;;;;;;;6.45;1.63;;;;;;;14.42;90.69;101893.66;5263643;28;20562;-67
2022/07/27 07:02:31;;;;;;;5.57;1.20;;;;;;;14.67;90.40;101898.91;5269336;28;20378;-67
2022/07/27 07:05:03;;;;;;;3.60;1.00;;;;;;;14.74;91.79;101896.59;5264426;28;20434;-67
2022/07/27 07:07:34;;;;;;;3.63;1.20;;;;;;;14.95;88.96;101899.44;5272423;28;20521;-67
2022/07/27 07:10:06;;;;;;;3.50;1.30;;;;;;;15.12;88.35;101900.81;5271351;28;20036;-67
2022/07/27 07:12:38;;;;;;;6.13;1.00;;;;;;;15.39;87.70;101913.03;5267723;28;20159;-67
2022/07/27 07:15:09;;;;;;;4.05;1.00;;;;;;;15.61;86.68;101906.78;5269969;28;20037;-67
2022/07/27 07:17:41;;;;;;;6.30;1.60;;;;;;;15.84;86.40;101908.50;5269021;28;20047;-67
2022/07/27 07:20:12;;;;;;;5.15;1.10;;;;;;;15.99;83.88;101906.38;5268663;28;20032;-67
2022/07/27 07:22:44;;;;;;;3.85;1.20;;;;;;;16.14;84.06;101914.16;5264684;28;20480;-67
2022/07/27 07:25:15;;;;;;;5.85;1.38;;;;;;;16.35;81.77;101908.81;5269129;28;20497;-67
2022/07/27 07:27:47;;;;;;;6.70;1.33;;;;;;;16.42;81.36;101913.56;5267096;28;20486;-67
2022/07/27 07:30:19;;;;;;;6.85;1.50;;;;;;;16.46;78.16;101909.59;5268977;28;20191;-67
2022/07/27 07:32:51;;;;;;;6.28;1.30;;;;;;;16.58;77.78;101915.78;5265956;28;20024;-67
2022/07/27 07:35:22;;;;;;;4.95;1.30;;;;;;;16.79;77.40;101915.81;5270981;28;20433;-67
2022/07/27 07:37:54;;;;;;;6.50;0.90;;;;;;;17.08;75.67;101917.84;5266539;28;20059;-67
2022/07/27 07:40:25;;;;;;;4.22;1.23;;;;;;;17.25;75.50;101911.81;5266830;28;20043;-67
2022/07/27 07:42:59;;;;;;;4.50;0.90;;;;;;;17.37;72.64;101915.31;5268461;28;20035;-68
2022/07/27 07:45:34;;;;;;;7.13;1.10;;;;;;;17.33;72.58;101915.69;5262667;28;20028;-67
2022/07/27 07:48:06;;;;;;;3.65;0.80;;;;;;;17.20;71.63;101918.63;5263748;28;20024;-67
2022/07/27 07:50:37;;;;;;;3.47;0.80;;;;;;;17.14;71.23;101917.31;5271891;28;20051;-67
2022/07/27 07:53:08;;;;;;;7.05;1.50;;;;;;;17.03;72.30;101915.56;5263961;28;20035;-67
2022/07/27 07:55:40;;;;;;;4.65;0.95;;;;;;;17.22;73.69;101916.63;5267344;28;20644;-68
2022/07/27 07:58:11;;;;;;;3.97;0.73;;;;;;;17.28;71.25;101921.50;5259574;28;20057;-67
2022/07/27 08:00:43;;;;;;;4.68;1.02;;;;;;;17.39;71.49;101923.25;5269580;28;20479;-67
2022/07/27 08:03:15;;;;;;;4.93;1.05;;;;;;;17.53;68.51;101920.19;5257164;28;20653;-67
2022/07/27 08:05:46;;;;;;;3.88;0.90;;;;;;;17.88;70.27;101924.28;5269167;28;20064;-67
2022/07/27 08:08:17;;;;;;;5.18;1.15;;;;;;;17.75;67.70;101924.50;5267113;28;20166;-67
2022/07/27 08:10:49;;;;;;;3.28;1.10;;;;;;;17.76;69.59;101928.94;5265397;28;20580;-67
2022/07/27 08:13:20;;;;;;;5.85;1.00;;;;;;;17.56;66.58;101927.16;5264939;28;20031;-68
2022/07/27 08:15:52;;;;;;;4.32;1.10;;;;;;;17.43;71.04;101941.75;5261985;28;20036;-67
2022/07/27 08:18:23;;;;;;;4.20;1.15;;;;;;;17.21;71.77;101933.81;5267105;28;20024;-68
2022/07/27 08:20:54;;;;;;;4.75;0.95;;;;;;;17.12;73.70;101931.91;5263975;28;20028;-67
2022/07/27 08:23:26;;;;;;;5.78;1.20;;;;;;;17.09;73.57;101943.84;5267219;28;20051;-67
2022/07/27 08:25:57;;;;;;;4.40;1.40;;;;;;;17.18;72.82;101934.97;5265383;28;20020;-67
2022/07/27 08:28:28;;;;;;;4.05;1.20;;;;;;;17.08;71.06;101933.19;5270922;28;20031;-67
2022/07/27 08:31:00;;;;;;;5.15;0.90;;;;;;;16.95;69.90;101938.78;5267996;28;20035;-67
2022/07/27 08:33:31;;;;;;;3.63;0.90;;;;;;;16.91;70.70;101929.25;5264338;28;20105;-67
2022/07/27 08:36:02;;;;;;;5.05;1.02;;;;;;;16.99;70.41;101933.00;5270603;28;20031;-67
2022/07/27 08:38:34;;;;;;;4.20;1.20;;;;;;;17.08;68.96;101919.69;5267235;28;20032;-67
2022/07/27 08:41:06;;;;;;;3.33;1.00;;;;;;;17.37;68.79;101923.41;5264707;28;20033;-67
2022/07/27 08:43:41;;;;;;;6.28;1.23;;;;;;;17.51;67.37;101922.19;5268350;28;20394;-68
2022/07/27 08:46:16;;;;;;;2.33;0.70;;;;;;;17.88;63.24;101915.34;5261020;28;20094;-67
2022/07/27 08:48:48;;;;;;;3.75;0.70;;;;;;;18.13;58.73;101925.63;5266533;28;20154;-67
2022/07/27 08:51:23;;;;;;;2.95;0.80;;;;;;;18.49;57.88;101923.22;5261220;28;20710;-67
2022/07/27 08:53:55;;;;;;;5.18;1.00;;;;;;;18.72;61.16;101929.16;5271881;28;20026;-67
2022/07/27 08:56:26;;;;;;;3.97;0.80;;;;;;;18.77;60.39;101928.72;5266751;28;20025;-68
2022/07/27 08:58:57;;;;;;;3.60;1.00;;;;;;;19.13;59.77;101927.09;5257007;28;20028;-67
2022/07/27 09:01:35;;;;;;;3.67;0.90;;;;;;;19.01;56.25;101933.69;5264853;28;20028;-68
2022/07/27 09:04:07;;;;;;;3.97;0.90;;;;;;;19.17;57.75;101931.22;5270587;28;20426;-67
2022/07/27 09:06:42;;;;;;;3.67;0.98;;;;;;;19.29;56.65;101937.34;5274776;28;20035;-67
2022/07/27 09:09:17;;;;;;;3.03;0.80;;;;;;;19.52;56.41;101929.69;5265660;28;20033;-68
2022/07/27 09:12:07;;;;;;;4.50;0.60;;;;;;;19.73;57.64;101931.31;5263581;28;20449;-68
2022/07/27 09:14:40;;;;;;;3.28;0.80;;;;;;;19.71;52.47;101934.16;5264180;28;20033;-68
2022/07/27 09:17:22;;;;;;;4.20;0.77;;;;;;;19.45;52.14;101935.84;5268147;28;20024;-67
2022/07/27 09:20:10;;;;;;;3.00;0.65;;;;;;;19.61;51.19;101935.19;5264613;28;20021;-67
2022/07/27 09:22:53;;;;;;;4.10;0.70;;;;;;;19.55;54.43;101929.38;5266645;28;20029;-70
2022/07/27 09:25:29;;;;;;;5.22;0.80;;;;;;;19.64;53.03;101934.91;5263870;28;20036;-67
2022/07/27 09:28:00;;;;;;;2.47;0.60;;;;;;;19.61;53.38;101937.91;5268658;28;20060;-68
2022/07/27 09:30:31;;;;;;;4.40;1.70;;;;;;;19.40;55.81;101944.38;5270348;28;20028;-68
2022/07/27 09:33:05;;;;;;;6.85;1.20;;;;;;;19.41;58.39;101940.69;5265293;28;20063;-67
2022/07/27 09:35:37;;;;;;;7.20;1.10;;;;;;;19.47;58.69;101940.09;5271838;28;20029;-67
2022/07/27 09:38:23;;;;;;;6.68;1.20;;;;;;;19.46;59.24;101937.53;5269596;28;20024;-67
2022/07/27 09:40:59;;;;;;;4.30;1.00;;;;;;;19.19;60.02;101925.66;5270202;28;20491;-67
2022/07/27 09:43:32;;;;;;;5.55;1.10;;;;;;;18.89;60.44;101945.66;5268484;28;20074;-67
2022/07/27 09:46:06;;;;;;;2.85;0.93;;;;;;;18.77;61.65;101945.81;5269502;28;20025;-67
2022/07/27 09:48:38;;;;;;;3.15;0.93;;;;;;;18.55;63.45;101943.41;5259808;28;20060;-67
2022/07/27 09:51:11;;;;;;;3.35;1.08;;;;;;;18.35;63.03;101939.84;5267368;28;20459;-68
2022/07/27 09:53:43;;;;;;;5.45;1.10;;;;;;;18.29;62.61;101935.84;5267126;28;20479;-67
2022/07/27 09:56:16;;;;;;;6.50;1.20;;;;;;;18.35;62.65;101931.72;5267718;28;20078;-67
2022/07/27 09:58:50;;;;;;;6.93;1.00;;;;;;;18.40;61.96;101938.41;5268197;28;20052;-67
2022/07/27 10:01:22;;;;;;;;;;;;;;;18.71;62.40;101943.66;5273569;28;20024;-67
2022/07/27 10:03:57;;;;;;;7.43;1.60;;;;;;;18.57;63.56;101936.84;5271314;28;19963;-68
2022/07/27 10:06:29;;;;;;;8.70;1.30;;;;;;;18.84;64.41;101937.16;5273946;28;20565;-67
2022/07/27 10:09:01;;;;;;;4.88;1.02;;;;;;;18.81;62.26;101938.28;5267419;28;20031;-67
2022/07/27 10:11:34;;;;;;;7.05;1.23;;;;;;;19.11;62.58;101942.63;5270263;28;20029;-67
2022/07/27 10:14:06;;;;;;;6.20;1.10;;;;;;;19.16;61.46;101940.34;5263786;28;20469;-67
2022/07/27 10:16:38;;;;;;;5.22;1.00;;;;;;;19.33;61.32;101941.44;5268153;28;20024;-67
2022/07/27 10:19:13;;;;;;;5.82;1.05;;;;;;;19.40;60.95;101937.13;5266490;28;20047;-67
2022/07/27 10:21:46;;;;;;;4.60;1.13;;;;;;;19.34;61.52;101934.16;5261226;28;20045;-67
2022/07/27 10:24:31;;;;;;;5.78;1.08;;;;;;;19.26;61.19;101937.63;5262874;28;20442;-67
2022/07/27 10:27:28;;;;;;;5.32;1.10;;;;;;;19.05;61.62;101935.13;5270946;28;20021;-67
2022/07/27 10:29:59;;;;;;;4.20;1.20;;;;;;;18.77;61.68;101926.03;5269385;28;20406;-67
2022/07/27 10:32:33;;;;;;;3.13;1.15;;;;;;;19.16;64.72;101920.56;5266227;28;20021;-67
2022/07/27 10:35:05;;;;;;;5.30;1.13;;;;;;;19.46;63.86;101927.56;5263165;28;20055;-67
2022/07/27 10:37:36;;;;;;;7.75;1.50;;;;;;;19.56;57.29;101922.13;5266919;28;20045;-67
2022/07/27 10:40:35;;;;;;;5.18;1.05;;;;;;;19.56;56.85;101916.72;5272536;28;20021;-67
2022/07/27 10:43:21;;;;;;;3.28;0.82;;;;;;;19.95;58.25;101913.78;5270319;28;20032;-67
2022/07/27 10:45:52;;;;;;;3.92;1.00;;;;;;;19.80;56.19;101915.31;5268107;28;20157;-67
2022/07/27 10:48:35;;;;;;;4.55;0.95;;;;;;;19.64;56.39;101913.25;5272105;28;20016;-67
2022/07/27 10:51:07;;;;;;;4.65;1.00;;;;;;;19.44;58.09;101912.47;5265125;28;20543;-67
2022/07/27 10:53:40;;;;;;;4.55;1.20;;;;;;;19.32;57.66;101915.38;5263309;28;22452;-67
2022/07/27 10:56:12;;;;;;;4.88;0.90;;;;;;;19.14;56.07;101907.19;5266908;28;20086;-67
2022/07/27 10:58:44;;;;;;;4.80;1.05;;;;;;;19.04;56.32;101905.50;5262694;28;20048;-68
2022/07/27 11:01:17;;;;;;;2.85;1.02;;;;;;;18.91;55.71;101912.09;5270744;28;20075;-69
2022/07/27 11:03:51;;;;;;;3.90;1.00;;;;;;;18.90;57.63;101907.66;5270319;28;20024;-67
2022/07/27 11:06:25;;;;;;;5.03;1.00;;;;;;;18.94;56.93;101911.78;5269889;28;20033;-67
2022/07/27 11:08:59;;;;;;;4.53;1.20;;;;;;;18.87;56.49;101905.28;5266398;28;20027;-68
2022/07/27 11:11:33;;;;;;;7.22;1.38;;;;;;;18.95;57.08;101908.09;5266300;28;20517;-67
2022/07/27 11:14:04;;;;;;;3.05;1.33;;;;;;;19.12;59.02;101903.78;5263738;28;20115;-67
2022/07/27 11:16:36;;;;;;;4.28;1.02;;;;;;;19.16;58.12;101907.03;5265663;28;20042;-67
2022/07/27 11:19:07;;;;;;;5.60;1.15;;;;;;;19.22;57.83;101913.72;5269119;28;20596;-67
2022/07/27 11:21:40;;;;;;;4.10;1.30;;;;;;;19.48;58.86;101901.19;5268157;28;20032;-67
2022/07/27 11:24:15;;;;;;;5.72;1.10;;;;;;;19.67;57.32;101902.94;5262726;28;20119;-67
2022/07/27 11:26:48;;;;;;;6.25;1.20;;;;;;;19.52;56.42;101907.16;5264692;28;20458;-67
2022/07/27 11:29:22;;;;;;;6.25;1.10;;;;;;;19.80;57.23;101902.63;5268820;28;20111;-68
2022/07/27 11:31:54;;;;;;;4.72;1.25;;;;;;;20.05;56.80;101897.47;5265286;28;20032;-67
2022/07/27 11:34:31;;;;;;;6.85;1.27;;;;;;;20.08;54.06;101898.00;5266841;28;20040;-67
2022/07/27 11:37:12;;;;;;;6.80;1.77;;;;;;;20.47;55.33;101894.13;5265406;28;20099;-67
2022/07/27 11:39:45;;;;;;;3.88;1.27;;;;;;;20.60;54.03;101899.19;5265598;28;20028;-67
2022/07/27 11:42:17;;;;;;;2.77;0.80;;;;;;;20.64;50.32;101895.97;5264195;28;20036;-68
2022/07/27 11:44:48;;;;;;;4.97;1.27;;;;;;;20.78;48.27;101897.25;5269017;28;20111;-67
2022/07/27 11:47:22;;;;;;;4.40;1.00;;;;;;;20.66;49.03;101893.13;5263518;28;20029;-67
2022/07/27 11:50:06;;;;;;;4.07;1.23;;;;;;;20.63;50.39;101891.56;5268776;28;20119;-68